Arlington, Alabama
Current Conditions -  °F | °C
As of 3:35 PM on Friday 24 Oct 2014 (Local Time) from KDYA Reporting Station
Clear Clear  
Wind Chill: 25°   Ceiling: Unl
Heat Index: 25°   Visibility: 10mi
Dew Point:   Wind: 6mph
Humidity: 27%   Direction: 340°NNW
Pressure: 30.04"   Gusts: NA
Location:  32.06°N, 87.59°W
Report Text: KDYA 242035Z AUTO 34005KT 10SM CLR 25/04 A3004 RMK AO2 T02450041
Loading
Personal Weather Stations






























Interactive Weather Map
Tropical Storm Tracking
New forecast layout! Learn more

10-Day Weather Forecast

Advertisements
Track Severe Weather on mobile